Honaunau, HI

3:18 PM HST on August 20, 2014 (GMT -1000)
Halemalu | Change Station
CLOSE
Current Station
Personal Weather Station
Location: Captain Cook, HI
Elevation: 1700 ft
Nearby Weather Stations

Elev 1700 ft 19.50 °N, 155.91 °W | Updated 6 seconds ago

Clear
Clear
76.8 °F
Feels Like 77 °F
N
2.0
Wind Variable Wind from West
Gusts 4.0 mph

Today
High -- | Low -- °F
--% Chance of Precip.
Yesterday
High -- | Low -- °F
Precip. -- in
6:05 AM 6:47 PM
Waning Crescent, 18% visible
Pressure 29.91 in
Visibility 10.0 miles
Clouds Clear
Heat Index 77 °F
Dew Point 75 °F
Humidity 95%
Rainfall 0.00 in
Snow Depth Not available.
UV 8 out of 12
Pollen Not available.
Air Quality Not available.
Flu Activity Not available.
METAR PHKO 210053Z 24010KT 10SM CLR 29/22 A2991 RMK AO2 SLP128 T02940217

More Conditions Fewer Conditions

Pressure 29.91 in
Visibility 10.0 miles
Clouds Clear
Heat Index 77 °F
Dew Point 75 °F
Humidity 95%
Rainfall 0.00 in
Snow Depth Not available.
UV 8 out of 12
Pollen Not available.
Air Quality Not available.
Flu Activity Not available.
METAR PHKO 210053Z 24010KT 10SM CLR 29/22 A2991 RMK AO2 SLP128 T02940217

More Conditions Fewer Conditions

10-Day Weather Forecast

Almanac

Astronomy

Aug. 20, 2014 Rise Set
Actual Time 6:05 AM HST 6:47 PM HST
Civil Twilight 5:42 AM HST 7:10 PM HST
Nautical Twilight 5:16 AM HST 7:36 PM HST
Astronomical Twilight 4:49 AM HST 8:03 PM HST
Moon 2:08 AM HST (8/20) 3:27 PM HST (8/20)
Length of Visible Light 13h 27m
Length of Day
12h 42m
Tomorrow will be 1m 0s shorter.
Waning Crescent, 18% of the Moon is Illuminated
Today
Waning Crescent
Aug 25
New
Sep 2
First Quarter
Sep 8
Full
Sep 15
Last Quarter

Today's Extremes

State Highs State Lows

Community

WunderPhotos

Upload Photos

1,745,823 photos uploaded!

WunderBlogs® & News

Nearby

Snow Depth

Station Depth Elevation
No new snow has been reported.

Earthquake Activity

City Distance Mag. Time & Date
No recent earthquake activity has been reported nearby.
Minimum magnitude displayed is 2.5.

Coastal Water Temperatures

Place Temperature
No Stations Reporting

Nearby Weather Stations